Alyeska Resort
Max's Hourly Weather Roundup
ALYESKA_MAX 10/1/2016
Click Here for Graph

        DATE  TIME   Air  Wind  Wind  Wind  BATT   Rel
                    Temp   Spd   Dir  Gust  Volt  Hum%
                      F   MPH   AVG   MPH   AVG   AVG

   10/1/2016 05:00    42     3   131    11 12.80    42
   10/1/2016 04:00    42     6    70    13 12.81    42
   10/1/2016 03:00    43     3    84     8 12.84    38
   10/1/2016 02:00    43     3   140     6 12.86    47
   10/1/2016 01:00    42     3   255     7 12.89    52
   9/30/2016 24:00    43     1   178     4 12.92    53
   9/30/2016 23:00    43     0   239     0 12.95    54
   9/30/2016 22:00    44     0   214     2 13.00    54
   9/30/2016 21:00    44     1   110     3 13.09    58
   9/30/2016 20:00    45     0   208     2 13.27    56
   9/30/2016 19:00    49     2   168     6 13.63    54
   9/30/2016 18:00    49     4   193    10 14.07    52
   9/30/2016 17:00    48     3   240    11 13.73    50
   9/30/2016 16:00    47     3   242    12 13.66    49
   9/30/2016 15:00    47     2   250     9 13.62    50
   9/30/2016 14:00    48     2   211     9 13.62    51
   9/30/2016 13:00    46     3   166     7 13.62    53
   9/30/2016 12:00    46     1   157     6 13.63    52
   9/30/2016 11:00    45     0   207     2 13.58    45
   9/30/2016 10:00    43     0   230     2 13.54    43
   9/30/2016 09:00    43     0   271     2 12.81    46
   9/30/2016 08:00    42     2   246     3 12.73    51
   9/30/2016 07:00    42     3    63     6 12.74    49
   9/30/2016 06:00    40     6   196     9 12.76    61


Click Here for Graph